Time;durP1;ratioP1;P1;durP2;ratioP2;P2;SDS_P1;SDS_P2;PMS_P1;PMS_P2;Temp;Humidity;BMP_temperature;BMP_pressure;BME280_temperature;BME280_humidity;BME280_pressure;Samples;Min_cycle;Max_cycle;Signal;HPM_P1;HPM_P2
2022/07/06 00:01:12;;;;;;;3.00;2.40;;;;;;;17.97;66.75;98704.66;5074855;28;20271;-69
2022/07/06 00:03:40;;;;;;;3.90;2.33;;;;;;;18.05;66.53;98699.47;5061997;28;20216;-70
2022/07/06 00:06:06;;;;;;;3.07;2.37;;;;;;;17.99;66.97;98707.22;5074919;28;20219;-70
2022/07/06 00:08:33;;;;;;;2.83;2.50;;;;;;;17.96;67.18;98707.47;5074950;28;20214;-70
2022/07/06 00:11:00;;;;;;;2.60;2.40;;;;;;;17.91;67.98;98704.38;5074554;28;20231;-71
2022/07/06 00:13:26;;;;;;;2.73;2.10;;;;;;;17.87;68.01;98698.44;5074740;28;20326;-70
2022/07/06 00:15:53;;;;;;;3.10;2.70;;;;;;;17.80;68.75;98702.66;5073123;28;20298;-70
2022/07/06 00:18:19;;;;;;;3.90;2.50;;;;;;;17.76;69.25;98695.91;5074445;28;20237;-70
2022/07/06 00:20:47;;;;;;;2.67;2.30;;;;;;;17.75;69.28;98698.72;5074317;28;20584;-70
2022/07/06 00:23:14;;;;;;;3.53;2.57;;;;;;;17.76;69.53;98695.91;5073839;28;20211;-70
2022/07/06 00:25:41;;;;;;;3.13;2.60;;;;;;;17.73;69.99;98690.00;5074376;28;20220;-70
2022/07/06 00:28:08;;;;;;;2.97;2.77;;;;;;;17.70;69.96;98692.91;5074481;28;20217;-70
2022/07/06 00:30:34;;;;;;;2.73;2.50;;;;;;;17.67;70.30;98686.00;5074359;28;20211;-71
2022/07/06 00:33:01;;;;;;;2.97;2.67;;;;;;;17.68;69.93;98693.06;5074255;28;20219;-70
2022/07/06 00:35:27;;;;;;;3.90;2.50;;;;;;;17.65;70.23;98690.66;5074637;28;20216;-70
2022/07/06 00:37:55;;;;;;;5.80;2.40;;;;;;;17.52;70.90;98687.38;5074356;28;20215;-71
2022/07/06 00:40:22;;;;;;;2.70;2.50;;;;;;;17.48;71.05;98696.66;5074312;28;20222;-70
2022/07/06 00:42:49;;;;;;;3.60;2.97;;;;;;;17.44;71.36;98695.22;5072367;28;20242;-70
2022/07/06 00:45:17;;;;;;;3.57;2.73;;;;;;;17.42;71.52;98702.53;5074045;28;20219;-70
2022/07/06 00:47:44;;;;;;;4.67;3.00;;;;;;;17.38;71.36;98694.94;5074066;28;20237;-70
2022/07/06 00:50:17;;;;;;;2.80;2.60;;;;;;;17.35;71.42;98690.66;5074097;28;20222;-70
2022/07/06 00:52:45;;;;;;;3.77;2.70;;;;;;;17.33;71.39;98700.66;5074052;28;20584;-70
2022/07/06 00:55:14;;;;;;;2.50;2.30;;;;;;;17.27;71.76;98692.31;5073828;28;20693;-70
2022/07/06 00:57:42;;;;;;;4.27;2.80;;;;;;;17.26;71.47;98691.44;5073511;28;20235;-69
2022/07/06 01:00:11;;;;;;;2.70;2.50;;;;;;;17.20;71.93;98696.50;5073396;28;20211;-69
2022/07/06 01:02:37;;;;;;;2.93;2.57;;;;;;;17.16;72.17;98698.59;5073431;28;20238;-70
2022/07/06 01:05:05;;;;;;;2.93;2.50;;;;;;;17.07;73.08;98704.72;5073726;28;20234;-69
2022/07/06 01:07:32;;;;;;;2.70;2.50;;;;;;;17.13;72.33;98701.50;5071469;28;20306;-70
2022/07/06 01:09:59;;;;;;;4.60;2.80;;;;;;;17.02;72.79;98701.59;5073647;28;20211;-70
2022/07/06 01:12:27;;;;;;;3.03;2.70;;;;;;;17.09;72.04;98700.09;5073327;28;20589;-70
2022/07/06 01:14:54;;;;;;;2.77;2.57;;;;;;;17.04;72.16;98693.44;5073375;28;20214;-70
2022/07/06 01:17:21;;;;;;;3.33;2.67;;;;;;;16.98;72.19;98693.97;5073336;28;20215;-70
2022/07/06 01:19:48;;;;;;;3.00;2.80;;;;;;;16.89;73.01;98690.28;5073233;28;20223;-70
2022/07/06 01:22:16;;;;;;;4.20;2.33;;;;;;;16.96;72.04;98695.94;5072953;28;20250;-69
2022/07/06 01:24:43;;;;;;;3.83;2.60;;;;;;;16.86;72.54;98687.88;5073314;28;20215;-70
2022/07/06 01:27:09;;;;;;;3.10;2.53;;;;;;;16.81;72.49;98694.56;5072999;28;20218;-70
2022/07/06 01:29:36;;;;;;;3.13;2.30;;;;;;;16.82;72.61;98688.28;5073346;28;20242;-70
2022/07/06 01:32:03;;;;;;;2.40;2.20;;;;;;;16.78;72.35;98684.19;5072925;28;20661;-70
2022/07/06 01:34:30;;;;;;;6.63;2.60;;;;;;;16.82;72.05;98689.13;5071342;28;20692;-70
2022/07/06 01:36:56;;;;;;;3.67;2.10;;;;;;;16.76;72.12;98684.28;5072963;28;20703;-69
2022/07/06 01:39:24;;;;;;;2.83;2.10;;;;;;;16.65;73.05;98689.69;5072833;28;20218;-70
2022/07/06 01:41:51;;;;;;;4.73;2.57;;;;;;;16.63;72.72;98686.31;5072912;28;20808;-69
2022/07/06 01:44:17;;;;;;;3.13;2.43;;;;;;;16.62;72.97;98681.97;5073098;28;20212;-69
2022/07/06 01:46:44;;;;;;;2.93;2.53;;;;;;;16.50;72.97;98680.34;5073120;28;20585;-69
2022/07/06 01:49:10;;;;;;;3.37;2.40;;;;;;;16.46;73.08;98684.22;5072707;28;20222;-69
2022/07/06 01:51:37;;;;;;;2.87;2.33;;;;;;;16.50;73.25;98685.66;5073000;28;20837;-69
2022/07/06 01:54:03;;;;;;;2.60;2.40;;;;;;;16.46;73.18;98683.41;5073048;28;20219;-70
2022/07/06 01:56:31;;;;;;;3.00;2.60;;;;;;;16.37;73.77;98684.97;5072595;28;20215;-70
2022/07/06 01:58:58;;;;;;;3.13;2.83;;;;;;;16.39;73.63;98677.72;5072788;28;20302;-69
2022/07/06 02:01:24;;;;;;;4.27;2.70;;;;;;;16.37;73.63;98684.97;5070817;28;20677;-70
2022/07/06 02:03:51;;;;;;;2.63;2.40;;;;;;;16.31;74.18;98690.81;5072665;28;20216;-70
2022/07/06 02:06:17;;;;;;;5.13;2.60;;;;;;;16.25;74.41;98691.34;5072849;28;20220;-69
2022/07/06 02:08:44;;;;;;;3.10;2.47;;;;;;;16.18;74.84;98689.31;5072641;28;20677;-70
2022/07/06 02:11:11;;;;;;;4.00;2.50;;;;;;;16.15;75.26;98694.91;5072942;28;20219;-70
2022/07/06 02:13:39;;;;;;;2.83;2.53;;;;;;;16.14;75.14;98699.38;5071290;28;20207;-70
2022/07/06 02:16:05;;;;;;;2.50;2.30;;;;;;;16.03;75.59;98695.91;5065466;28;20219;-70
2022/07/06 02:18:32;;;;;;;4.10;2.40;;;;;;;16.07;75.24;98699.16;5072802;28;20213;-70
2022/07/06 02:20:58;;;;;;;3.70;2.60;;;;;;;16.06;75.36;98698.31;5072605;28;20207;-70
2022/07/06 02:23:25;;;;;;;3.80;2.73;;;;;;;16.02;75.58;98699.53;5072562;28;20250;-70
2022/07/06 02:25:52;;;;;;;3.30;2.67;;;;;;;15.98;75.72;98696.25;5070752;28;20219;-69
2022/07/06 02:28:19;;;;;;;3.90;2.50;;;;;;;16.03;75.90;98702.06;5072721;28;20215;-70
2022/07/06 02:30:47;;;;;;;3.27;2.53;;;;;;;16.00;76.01;98700.66;5072627;28;20230;-69
2022/07/06 02:33:13;;;;;;;3.10;2.80;;;;;;;15.98;76.07;98698.94;5072661;28;20284;-70
2022/07/06 02:35:42;;;;;;;2.73;2.10;;;;;;;15.93;76.39;98699.44;5072524;28;20216;-69
2022/07/06 02:38:09;;;;;;;6.20;3.00;;;;;;;15.90;76.62;98700.56;5072607;28;20311;-69
2022/07/06 02:40:36;;;;;;;3.53;3.03;;;;;;;15.86;77.22;98704.44;5074840;28;20708;-70
2022/07/06 02:43:02;;;;;;;3.03;2.47;;;;;;;15.85;77.17;98701.88;5076377;28;20234;-70
2022/07/06 02:45:29;;;;;;;3.33;2.60;;;;;;;15.85;77.29;98712.56;5076135;28;20307;-70
2022/07/06 02:47:57;;;;;;;2.63;2.43;;;;;;;15.84;77.61;98709.06;5076442;28;20212;-69
2022/07/06 02:50:23;;;;;;;4.17;2.60;;;;;;;15.78;78.04;98711.34;5073294;28;20219;-69
2022/07/06 02:52:50;;;;;;;3.00;2.70;;;;;;;15.68;78.88;98708.59;5074433;28;20207;-70
2022/07/06 02:55:17;;;;;;;3.27;2.60;;;;;;;15.64;79.42;98703.63;5076329;28;20216;-70
2022/07/06 02:57:44;;;;;;;2.70;2.50;;;;;;;15.54;79.94;98708.00;5076273;28;20356;-70
2022/07/06 03:00:11;;;;;;;3.00;2.70;;;;;;;15.55;80.17;98715.03;5075892;28;20569;-70
2022/07/06 03:02:37;;;;;;;3.43;2.80;;;;;;;15.50;80.52;98706.53;5075981;28;20238;-70
2022/07/06 03:05:06;;;;;;;4.40;3.00;;;;;;;15.54;80.36;98713.34;5076087;28;20579;-70
2022/07/06 03:07:33;;;;;;;3.53;3.00;;;;;;;15.46;80.78;98713.09;5075768;28;20703;-70
2022/07/06 03:09:59;;;;;;;3.30;2.90;;;;;;;15.51;80.84;98713.59;5075938;28;20214;-69
2022/07/06 03:12:26;;;;;;;3.00;2.70;;;;;;;15.47;81.02;98717.47;5075722;28;20756;-70
2022/07/06 03:14:53;;;;;;;3.60;2.87;;;;;;;15.42;81.46;98722.28;5075889;28;20222;-70
2022/07/06 03:17:19;;;;;;;3.57;3.20;;;;;;;15.40;81.34;98721.59;5074611;28;20215;-69
2022/07/06 03:19:46;;;;;;;3.10;2.80;;;;;;;15.38;81.81;98726.16;5075409;28;20211;-70
2022/07/06 03:22:14;;;;;;;3.17;2.80;;;;;;;15.32;82.83;98726.63;5075197;28;20243;-70
2022/07/06 03:24:40;;;;;;;3.57;2.80;;;;;;;15.27;83.10;98729.66;5075694;28;20302;-71
2022/07/06 03:27:07;;;;;;;2.90;2.70;;;;;;;15.30;83.33;98733.88;5075448;28;20226;-70
2022/07/06 03:29:33;;;;;;;3.10;2.80;;;;;;;15.32;83.09;98734.59;5068286;28;20208;-70
2022/07/06 03:32:00;;;;;;;4.30;2.80;;;;;;;15.29;83.42;98734.84;5075143;28;20684;-70
2022/07/06 03:34:26;;;;;;;3.43;3.10;;;;;;;15.25;83.79;98728.94;5075382;28;20243;-70
2022/07/06 03:36:53;;;;;;;3.20;3.00;;;;;;;15.24;84.21;98731.69;5075523;28;20220;-70
2022/07/06 03:39:21;;;;;;;4.50;2.90;;;;;;;15.27;84.10;98734.16;5075421;28;20677;-70
2022/07/06 03:41:47;;;;;;;3.00;2.70;;;;;;;15.24;84.70;98737.03;5075015;28;20216;-70
2022/07/06 03:44:14;;;;;;;3.97;2.80;;;;;;;15.28;84.30;98734.00;5073348;28;20215;-70
2022/07/06 03:46:40;;;;;;;3.37;2.83;;;;;;;15.28;84.77;98742.00;5075051;28;20222;-70
2022/07/06 03:49:07;;;;;;;3.80;3.50;;;;;;;15.24;84.83;98740.56;5075319;28;20223;-70
2022/07/06 03:51:33;;;;;;;3.43;3.10;;;;;;;15.22;85.21;98746.97;5074862;28;20222;-70
2022/07/06 03:54:00;;;;;;;3.00;2.60;;;;;;;15.20;85.52;98744.41;5074872;28;20665;-70
2022/07/06 03:56:32;;;;;;;3.43;3.10;;;;;;;15.25;85.46;98744.91;5074834;28;20223;-70
2022/07/06 03:59:00;;;;;;;4.17;3.40;;;;;;;15.27;85.36;98742.13;5075020;28;20219;-70
2022/07/06 04:01:27;;;;;;;4.53;3.13;;;;;;;15.27;85.75;98747.47;5074842;28;20211;-70
2022/07/06 04:03:54;;;;;;;3.60;3.30;;;;;;;15.27;85.50;98745.63;5074633;28;20239;-70
2022/07/06 04:06:21;;;;;;;3.60;3.10;;;;;;;15.27;85.98;98750.13;5074720;28;20215;-70
2022/07/06 04:08:47;;;;;;;4.87;3.03;;;;;;;15.32;86.01;98745.25;5074486;28;20824;-70
2022/07/06 04:11:14;;;;;;;3.87;3.30;;;;;;;15.34;86.01;98748.69;5073050;28;20215;-70
2022/07/06 04:13:42;;;;;;;3.87;3.23;;;;;;;15.37;85.83;98745.78;5074848;28;20211;-70
2022/07/06 04:16:08;;;;;;;3.60;3.30;;;;;;;15.41;86.53;98755.25;5074550;28;20215;-70
2022/07/06 04:18:35;;;;;;;4.37;3.30;;;;;;;15.46;86.28;98753.06;5074569;28;20222;-70
2022/07/06 04:21:02;;;;;;;3.87;3.50;;;;;;;15.52;86.10;98757.91;5074214;28;20223;-70
2022/07/06 04:23:28;;;;;;;5.03;3.60;;;;;;;15.51;86.61;98759.72;5074461;28;20243;-70
2022/07/06 04:25:55;;;;;;;5.50;3.83;;;;;;;15.57;86.00;98753.06;5074176;28;20673;-70
2022/07/06 04:28:22;;;;;;;3.97;3.63;;;;;;;15.63;86.28;98756.06;5074132;28;20211;-70
2022/07/06 04:30:49;;;;;;;4.60;4.20;;;;;;;15.66;86.15;98754.97;5074090;28;20214;-70
2022/07/06 04:33:16;;;;;;;4.13;3.70;;;;;;;15.71;86.00;98763.47;5074680;28;20216;-70
2022/07/06 04:35:43;;;;;;;3.83;3.40;;;;;;;15.76;86.05;98771.94;5072313;28;20211;-70
2022/07/06 04:38:09;;;;;;;4.57;4.13;;;;;;;15.79;86.23;98766.34;5073872;28;20676;-70
2022/07/06 04:40:36;;;;;;;4.50;4.10;;;;;;;15.79;85.93;98771.69;5073812;28;20214;-70
2022/07/06 04:43:03;;;;;;;4.73;4.23;;;;;;;15.83;85.84;98763.31;5074016;28;20322;-70
2022/07/06 04:45:29;;;;;;;4.70;3.97;;;;;;;15.84;86.06;98764.19;5068941;28;20234;-70
2022/07/06 04:47:57;;;;;;;4.20;3.80;;;;;;;15.90;86.13;98774.34;5074182;28;20208;-70
2022/07/06 04:50:24;;;;;;;5.40;4.30;;;;;;;15.95;86.05;98769.50;5071664;28;20207;-70
2022/07/06 04:52:50;;;;;;;4.07;3.77;;;;;;;16.00;86.15;98778.81;5073695;28;20218;-70
2022/07/06 04:55:17;;;;;;;6.87;4.10;;;;;;;16.06;85.61;98780.16;5074006;28;20219;-70
2022/07/06 04:57:43;;;;;;;4.40;4.00;;;;;;;16.13;85.07;98780.38;5073938;28;20353;-70
2022/07/06 05:00:11;;;;;;;5.50;4.00;;;;;;;16.50;83.86;98781.75;5073549;28;20609;-70
2022/07/06 05:02:37;;;;;;;4.10;3.70;;;;;;;16.80;82.51;98783.66;5071378;28;20305;-70
2022/07/06 05:05:06;;;;;;;4.53;4.10;;;;;;;16.93;81.79;98787.00;5073772;28;20207;-70
2022/07/06 05:07:33;;;;;;;4.60;4.20;;;;;;;17.49;78.41;98789.22;5073325;28;20290;-70
2022/07/06 05:10:00;;;;;;;4.13;3.50;;;;;;;18.37;74.16;98793.78;5073150;28;20218;-70
2022/07/06 05:12:27;;;;;;;4.00;3.60;;;;;;;19.05;69.41;98790.97;5073722;28;20315;-70
2022/07/06 05:14:53;;;;;;;3.87;3.47;;;;;;;19.66;67.48;98781.56;5073506;28;20215;-70
2022/07/06 05:17:20;;;;;;;4.73;3.57;;;;;;;20.37;63.75;98783.44;5073745;28;20591;-70
2022/07/06 05:19:46;;;;;;;3.70;3.10;;;;;;;21.17;60.71;98795.03;5073454;28;20212;-70
2022/07/06 05:22:14;;;;;;;5.07;3.60;;;;;;;21.66;57.05;98796.19;5073040;28;20215;-70
2022/07/06 05:24:41;;;;;;;4.70;3.43;;;;;;;21.85;55.05;98796.84;5073040;28;20725;-70
2022/07/06 05:27:07;;;;;;;5.10;3.60;;;;;;;22.02;54.26;98798.63;5072543;28;20223;-69
2022/07/06 05:29:33;;;;;;;3.60;3.30;;;;;;;22.26;53.70;98785.22;5071787;28;20223;-70
2022/07/06 05:32:00;;;;;;;6.50;3.77;;;;;;;22.13;53.31;98802.88;5072723;28;20216;-70
2022/07/06 05:34:27;;;;;;;3.80;3.23;;;;;;;22.40;52.79;98802.63;5072833;28;20217;-70
2022/07/06 05:36:54;;;;;;;4.23;3.60;;;;;;;22.43;52.72;98800.47;5073207;28;20216;-70
2022/07/06 05:39:23;;;;;;;5.77;3.67;;;;;;;22.52;52.33;98806.72;5073148;28;20211;-70
2022/07/06 05:41:49;;;;;;;4.20;3.20;;;;;;;22.33;52.92;98802.44;5072758;28;20281;-70
2022/07/06 05:44:16;;;;;;;3.33;3.03;;;;;;;22.60;52.44;98813.00;5073019;28;20617;-70
2022/07/06 05:46:43;;;;;;;3.63;3.13;;;;;;;22.84;51.68;98810.34;5072928;28;20215;-70
2022/07/06 05:51:53;;;;;;;5.23;3.57;;;;;;;23.60;49.23;98800.91;5061174;28;20311;-70
2022/07/06 05:54:21;;;;;;;4.50;3.20;;;;;;;23.87;48.32;98794.28;5071054;28;20225;-70
2022/07/06 05:56:48;;;;;;;6.23;3.70;;;;;;;23.75;48.70;98793.81;5072897;28;20249;-70
2022/07/06 05:59:14;;;;;;;3.33;3.03;;;;;;;23.96;48.01;98802.22;5069656;28;20602;-69
2022/07/06 06:01:41;;;;;;;4.10;3.10;;;;;;;24.07;47.67;98804.53;5072955;28;20211;-69
2022/07/06 06:04:08;;;;;;;5.50;3.13;;;;;;;24.24;47.26;98805.31;5072868;28;20238;-69
2022/07/06 06:06:34;;;;;;;7.10;3.03;;;;;;;24.17;46.91;98805.19;5072842;28;20216;-69
2022/07/06 06:09:01;;;;;;;3.80;3.40;;;;;;;23.82;46.70;98804.75;5072821;28;20217;-70
2022/07/06 06:11:29;;;;;;;4.97;3.10;;;;;;;23.96;46.68;98813.00;5072827;28;20219;-69
2022/07/06 06:13:55;;;;;;;5.33;3.17;;;;;;;24.14;45.79;98810.09;5074384;28;20293;-69
2022/07/06 06:16:22;;;;;;;3.03;2.73;;;;;;;24.32;45.73;98806.13;5076724;28;20695;-69
2022/07/06 06:18:48;;;;;;;4.57;3.27;;;;;;;24.33;44.92;98807.78;5076779;28;20215;-69
2022/07/06 06:21:15;;;;;;;3.60;2.50;;;;;;;24.67;45.15;98805.63;5061948;28;20210;-69
2022/07/06 06:23:41;;;;;;;4.60;3.07;;;;;;;25.12;43.71;98810.25;5076414;28;20238;-69
2022/07/06 06:26:08;;;;;;;3.00;2.53;;;;;;;25.44;42.85;98818.13;5076611;28;20211;-69
2022/07/06 06:28:36;;;;;;;2.80;2.50;;;;;;;25.55;42.72;98815.78;5076646;28;20293;-69
2022/07/06 06:31:03;;;;;;;3.57;2.97;;;;;;;25.32;43.23;98825.84;5076504;28;20219;-71
2022/07/06 06:33:29;;;;;;;2.73;2.53;;;;;;;25.41;42.85;98823.91;5076392;28;20685;-71
2022/07/06 06:35:56;;;;;;;3.90;2.80;;;;;;;25.57;42.62;98827.31;5076569;28;20211;-71
2022/07/06 06:38:25;;;;;;;3.20;2.90;;;;;;;26.13;42.28;98828.59;5076582;28;20218;-71
2022/07/06 06:40:52;;;;;;;5.27;3.07;;;;;;;26.26;41.57;98823.34;5076474;28;20616;-71
2022/07/06 06:43:19;;;;;;;4.23;2.80;;;;;;;25.86;42.07;98823.78;5076366;28;20231;-71
2022/07/06 06:45:47;;;;;;;4.77;2.93;;;;;;;25.17;43.35;98837.59;5074743;28;20212;-71
2022/07/06 06:48:13;;;;;;;3.73;2.87;;;;;;;24.60;44.40;98830.84;5076398;28;20284;-71
2022/07/06 06:50:40;;;;;;;5.07;2.50;;;;;;;24.14;46.07;98829.84;5075815;28;20215;-71
2022/07/06 06:53:07;;;;;;;3.33;2.90;;;;;;;23.47;47.77;98835.69;5076214;28;20216;-70
2022/07/06 06:55:33;;;;;;;4.17;2.90;;;;;;;23.33;48.77;98833.66;5075991;28;20211;-69
2022/07/06 06:58:00;;;;;;;4.20;2.80;;;;;;;23.21;49.74;98832.31;5075724;28;20254;-69
2022/07/06 07:00:26;;;;;;;4.37;2.60;;;;;;;24.04;48.53;98822.94;5075766;28;20216;-69
2022/07/06 07:02:54;;;;;;;3.80;2.70;;;;;;;24.65;45.43;98829.31;5076006;28;20215;-69
2022/07/06 07:05:21;;;;;;;3.20;2.70;;;;;;;24.90;45.32;98830.84;5075817;28;20306;-69
2022/07/06 07:07:47;;;;;;;2.57;2.37;;;;;;;25.38;44.77;98822.41;5076059;28;20217;-70
2022/07/06 07:10:14;;;;;;;3.30;2.80;;;;;;;25.49;43.60;98819.22;5075737;28;20212;-69
2022/07/06 07:12:44;;;;;;;5.00;2.80;;;;;;;24.86;44.81;98824.09;5073930;28;20218;-70
2022/07/06 07:15:11;;;;;;;3.20;2.90;;;;;;;24.23;46.40;98826.09;5074462;28;20207;-70
2022/07/06 07:17:38;;;;;;;3.30;2.60;;;;;;;23.33;48.44;98820.19;5075838;28;20309;-70
2022/07/06 07:20:08;;;;;;;3.17;2.67;;;;;;;22.45;51.42;98820.03;5075685;28;20221;-70
2022/07/06 07:22:34;;;;;;;3.33;3.00;;;;;;;21.81;52.91;98824.22;5075761;28;20578;-70
2022/07/06 07:25:01;;;;;;;3.80;3.00;;;;;;;21.37;54.61;98818.03;5068471;28;20237;-70
2022/07/06 07:27:28;;;;;;;3.30;2.77;;;;;;;21.20;56.61;98831.47;5058757;28;20226;-72
2022/07/06 07:29:54;;;;;;;3.23;2.90;;;;;;;21.11;55.71;98819.84;5071335;28;20211;-72
2022/07/06 07:32:21;;;;;;;3.83;3.13;;;;;;;21.06;56.35;98819.47;5074714;28;20235;-72
2022/07/06 07:34:48;;;;;;;3.20;2.90;;;;;;;21.00;55.88;98820.06;5072163;28;20214;-73
2022/07/06 07:37:15;;;;;;;4.07;3.20;;;;;;;20.93;55.92;98819.00;5072789;28;20212;-72
2022/07/06 07:39:42;;;;;;;3.10;2.80;;;;;;;20.87;56.81;98816.91;5072498;28;20588;-72
2022/07/06 07:42:08;;;;;;;3.97;3.37;;;;;;;20.93;57.75;98819.00;5074456;28;20705;-71
2022/07/06 07:44:35;;;;;;;4.43;3.03;;;;;;;20.97;56.99;98819.53;5075304;28;20235;-71
2022/07/06 07:47:01;;;;;;;5.33;3.20;;;;;;;20.87;57.68;98824.09;5075325;28;20226;-71
2022/07/06 07:49:28;;;;;;;5.13;3.03;;;;;;;20.95;56.84;98814.31;5074814;28;20217;-81
2022/07/06 07:51:55;;;;;;;4.00;3.00;;;;;;;20.76;58.18;98810.88;5075190;28;20302;-78
2022/07/06 07:54:23;;;;;;;3.90;3.50;;;;;;;20.88;57.99;98818.63;5075080;28;20222;-81
2022/07/06 07:56:49;;;;;;;3.57;3.13;;;;;;;20.74;58.07;98818.28;5074887;28;20593;-82
2022/07/06 07:59:16;;;;;;;3.53;2.67;;;;;;;20.63;58.48;98813.13;5075305;28;20577;-83
2022/07/06 08:01:42;;;;;;;3.83;3.07;;;;;;;20.81;58.64;98811.28;5075314;28;20208;-83
2022/07/06 08:04:09;;;;;;;4.30;3.47;;;;;;;20.96;56.88;98818.69;5073666;28;20234;-81
2022/07/06 08:06:35;;;;;;;4.90;3.10;;;;;;;20.89;57.07;98825.69;5075415;28;20326;-78
2022/07/06 08:09:03;;;;;;;4.03;3.10;;;;;;;20.85;57.51;98815.38;5075005;28;20302;-76
2022/07/06 08:11:31;;;;;;;3.30;3.10;;;;;;;20.99;57.01;98818.41;5074820;28;20625;-71
2022/07/06 08:13:58;;;;;;;2.70;2.50;;;;;;;21.02;56.46;98818.06;5074645;28;20302;-71
2022/07/06 08:16:25;;;;;;;3.13;2.70;;;;;;;21.09;58.00;98811.06;5074512;28;20613;-71
2022/07/06 08:18:51;;;;;;;4.63;2.80;;;;;;;21.19;58.28;98813.66;5074650;28;20340;-71
2022/07/06 08:21:18;;;;;;;2.97;2.70;;;;;;;21.41;57.58;98818.56;5074345;28;20238;-71
2022/07/06 08:23:44;;;;;;;3.67;3.17;;;;;;;21.55;55.25;98820.66;5074245;28;20735;-71
2022/07/06 08:26:11;;;;;;;3.70;3.23;;;;;;;21.61;55.82;98817.34;5074292;28;20679;-71
2022/07/06 08:28:39;;;;;;;4.33;2.80;;;;;;;21.46;56.84;98817.06;5074217;28;20215;-71
2022/07/06 08:31:05;;;;;;;3.57;2.70;;;;;;;21.41;58.18;98819.41;5072671;28;20218;-71
2022/07/06 08:33:32;;;;;;;4.20;2.90;;;;;;;21.49;57.33;98814.09;5074423;28;20219;-71
2022/07/06 08:35:58;;;;;;;3.47;2.30;;;;;;;21.67;57.92;98816.75;5074134;28;20239;-71
2022/07/06 08:38:25;;;;;;;4.30;3.40;;;;;;;21.94;55.75;98812.03;5073309;28;20225;-71
2022/07/06 08:40:52;;;;;;;3.03;2.83;;;;;;;21.79;55.75;98813.63;5070927;28;20215;-71
2022/07/06 08:43:18;;;;;;;4.83;2.47;;;;;;;21.80;56.33;98815.31;5073945;28;20219;-71
2022/07/06 08:45:49;;;;;;;4.53;2.70;;;;;;;21.92;56.14;98813.19;5073953;28;20211;-71
2022/07/06 08:48:16;;;;;;;4.07;3.47;;;;;;;22.01;53.79;98809.53;5074179;28;20218;-70
2022/07/06 08:50:43;;;;;;;3.77;2.93;;;;;;;21.98;54.39;98808.00;5070943;28;20298;-71
2022/07/06 08:53:10;;;;;;;4.23;3.30;;;;;;;21.98;53.45;98807.16;5063061;28;20302;-71
2022/07/06 08:55:36;;;;;;;4.80;3.27;;;;;;;21.92;53.76;98808.66;5072955;28;20211;-70
2022/07/06 08:58:04;;;;;;;3.60;3.30;;;;;;;21.88;53.31;98811.84;5073214;28;20247;-70
2022/07/06 09:00:33;;;;;;;3.90;3.10;;;;;;;21.97;53.31;98810.88;5073767;28;20208;-70
2022/07/06 09:03:02;;;;;;;5.03;3.40;;;;;;;22.03;53.34;98816.47;5073840;28;20596;-70
2022/07/06 09:05:29;;;;;;;3.27;2.93;;;;;;;21.88;53.58;98801.91;5073799;28;20675;-71
2022/07/06 09:07:56;;;;;;;3.47;2.97;;;;;;;21.98;53.32;98818.78;5073607;28;20211;-70
2022/07/06 09:10:23;;;;;;;5.63;3.20;;;;;;;22.05;53.11;98803.66;5070681;28;20207;-70
2022/07/06 09:12:50;;;;;;;4.20;3.50;;;;;;;22.12;54.03;98812.78;5073625;28;20225;-71
2022/07/06 09:15:17;;;;;;;4.17;3.00;;;;;;;22.24;52.77;98808.78;5073542;28;20210;-71
2022/07/06 09:17:44;;;;;;;4.53;3.23;;;;;;;22.37;52.47;98819.13;5073506;28;20241;-70
2022/07/06 09:20:14;;;;;;;3.53;2.90;;;;;;;22.59;51.85;98824.78;5073138;28;20211;-70
2022/07/06 09:22:41;;;;;;;4.63;3.10;;;;;;;22.64;52.21;98817.06;5071442;28;20216;-70
2022/07/06 09:25:10;;;;;;;3.27;2.57;;;;;;;22.76;51.80;98821.13;5073124;28;20240;-70
2022/07/06 09:27:41;;;;;;;3.57;2.70;;;;;;;23.04;51.44;98817.09;5073274;28;20207;-71
2022/07/06 09:30:09;;;;;;;2.70;2.50;;;;;;;23.20;51.18;98816.28;5072980;28;20273;-70
2022/07/06 09:32:40;;;;;;;5.80;2.93;;;;;;;23.47;49.50;98827.59;5073317;28;20218;-71
2022/07/06 09:35:07;;;;;;;3.63;2.80;;;;;;;23.65;48.45;98822.84;5072921;28;20204;-70
2022/07/06 09:37:35;;;;;;;2.17;1.97;;;;;;;23.80;48.95;98829.25;5072972;28;20590;-70
2022/07/06 09:40:04;;;;;;;3.53;3.23;;;;;;;23.85;48.35;98832.28;5071367;28;20211;-70
2022/07/06 09:42:32;;;;;;;4.30;3.10;;;;;;;23.55;48.64;98829.44;5050858;28;20211;-80
2022/07/06 09:44:59;;;;;;;3.87;2.93;;;;;;;23.38;49.11;98830.44;5061535;28;20712;-72
2022/07/06 09:47:27;;;;;;;4.33;2.80;;;;;;;23.25;50.00;98836.38;5059175;28;20212;-76
2022/07/06 09:49:56;;;;;;;2.70;2.50;;;;;;;23.23;49.92;98832.97;5068754;28;20223;-77
2022/07/06 09:52:24;;;;;;;3.40;3.10;;;;;;;23.36;48.80;98838.72;5059965;28;20585;-82
2022/07/06 09:54:52;;;;;;;2.60;2.40;;;;;;;23.41;49.56;98835.53;5070951;28;20215;-80
2022/07/06 09:57:22;;;;;;;3.63;2.93;;;;;;;23.41;49.63;98833.66;5056343;28;20250;-85
2022/07/06 09:59:52;;;;;;;3.60;2.60;;;;;;;23.35;50.90;98828.13;5052479;28;20262;-77
2022/07/06 10:02:23;;;;;;;3.80;3.10;;;;;;;23.49;49.17;98844.47;5052829;28;20219;-77
2022/07/06 10:04:52;;;;;;;3.60;2.83;;;;;;;23.54;48.73;98846.66;5053566;28;20243;-79
2022/07/06 10:07:19;;;;;;;4.70;3.10;;;;;;;23.44;48.77;98844.13;5054830;28;20207;-80
2022/07/06 10:09:47;;;;;;;3.30;3.00;;;;;;;23.46;49.06;98847.50;5053448;28;20725;-71
2022/07/06 10:12:18;;;;;;;3.90;2.73;;;;;;;23.73;49.94;98844.44;5053532;28;20216;-71
2022/07/06 10:14:45;;;;;;;4.03;3.03;;;;;;;23.99;48.84;98842.38;5052121;28;20215;-72
2022/07/06 10:17:14;;;;;;;3.50;3.20;;;;;;;24.04;47.39;98841.84;5054410;28;20213;-73
2022/07/06 10:19:41;;;;;;;3.50;3.00;;;;;;;23.66;47.25;98838.00;5053810;28;20618;-72
2022/07/06 10:22:09;;;;;;;3.80;3.40;;;;;;;23.53;47.66;98848.50;5053554;28;20211;-81
2022/07/06 10:24:43;;;;;;;5.70;3.13;;;;;;;23.45;48.70;98843.09;5053152;28;20235;-80
2022/07/06 10:27:10;;;;;;;3.63;3.30;;;;;;;23.56;48.39;98842.78;5072410;28;20294;-86
2022/07/06 10:29:41;;;;;;;4.20;3.10;;;;;;;23.61;48.47;98851.19;5072733;28;20629;-82
2022/07/06 10:32:08;;;;;;;3.10;2.80;;;;;;;23.62;49.08;98850.19;5072804;28;20215;-79
2022/07/06 10:34:36;;;;;;;4.27;3.00;;;;;;;23.62;48.58;98847.50;5069325;28;20219;-69
2022/07/06 10:37:03;;;;;;;3.00;2.70;;;;;;;23.47;49.35;98849.16;5056859;28;20218;-69
2022/07/06 10:42:41;;;;;;;4.40;3.70;;;;;;;23.95;48.29;98849.13;5068946;28;20742;-69
2022/07/06 10:45:11;;;;;;;2.63;2.40;;;;;;;23.97;48.72;98841.72;5057282;28;20231;-70
2022/07/06 10:47:37;;;;;;;4.10;2.60;;;;;;;24.17;49.25;98840.31;5062427;28;20222;-70
2022/07/06 10:50:05;;;;;;;3.13;2.83;;;;;;;24.43;46.84;98848.97;5053530;28;20295;-70
2022/07/06 10:52:51;;;;;;;4.73;3.07;;;;;;;24.40;45.90;98843.09;5055112;28;20229;-69
2022/07/06 10:55:36;;;;;;;3.73;2.93;;;;;;;24.28;46.57;98837.22;5053041;28;20242;-69
2022/07/06 10:58:04;;;;;;;3.77;2.60;;;;;;;24.30;47.36;98843.28;5054040;28;20248;-69
2022/07/06 11:00:50;;;;;;;3.43;2.50;;;;;;;24.43;46.49;98832.75;5054633;28;20587;-70
2022/07/06 11:03:33;;;;;;;3.50;2.90;;;;;;;24.59;45.63;98830.03;5057585;28;20220;-70
2022/07/06 11:06:00;;;;;;;3.60;2.80;;;;;;;24.64;45.71;98835.72;5057765;28;20236;-69
2022/07/06 11:08:57;;;;;;;2.97;2.53;;;;;;;24.63;45.26;98834.03;5056500;28;20223;-69
2022/07/06 11:11:25;;;;;;;5.23;2.67;;;;;;;24.51;45.29;98835.41;5057544;28;20222;-70
2022/07/06 11:13:55;;;;;;;4.43;2.90;;;;;;;24.43;45.00;98827.34;5058061;28;20212;-70
2022/07/06 11:16:25;;;;;;;4.30;2.50;;;;;;;24.23;46.37;98834.22;5057497;28;20211;-69
2022/07/06 11:19:01;;;;;;;3.43;2.60;;;;;;;24.20;47.42;98839.94;5057026;28;20231;-69
2022/07/06 11:21:36;;;;;;;3.07;2.60;;;;;;;24.29;47.42;98840.75;5055628;28;20307;-70
2022/07/06 11:24:05;;;;;;;2.93;2.63;;;;;;;24.25;47.72;98842.97;5059635;28;20218;-71
2022/07/06 11:26:32;;;;;;;3.53;2.70;;;;;;;24.12;47.30;98834.56;5075440;28;20238;-70
2022/07/06 11:29:00;;;;;;;4.33;3.07;;;;;;;23.91;46.70;98823.50;5075465;28;20219;-70
2022/07/06 11:31:28;;;;;;;3.10;2.80;;;;;;;23.90;47.09;98824.50;5075141;28;20269;-70
2022/07/06 11:33:55;;;;;;;5.37;2.63;;;;;;;24.01;47.56;98832.25;5072266;28;20207;-70
2022/07/06 11:36:23;;;;;;;4.67;2.90;;;;;;;24.16;47.03;98816.16;5074029;28;20234;-77
2022/07/06 11:38:50;;;;;;;3.40;2.67;;;;;;;24.18;46.59;98823.06;5073079;28;20207;-72
2022/07/06 11:41:18;;;;;;;4.60;3.10;;;;;;;24.18;47.17;98817.66;5074610;28;20580;-77